Airfield :
LOGIN :

Register | Disclaimer

   EN    FR    IT 

 










Legend :    VFR   Marginal VFR   IFR   Intensive IFR   Very Intensive IFR
Visi :
Ceiling :
>= 8 km
>= 3000ft
5 to 8 km
1000 to 3000 ft
1500m to 5 km
500 to 1000 ft
800 to 1500m
200 to 500 ft
< 800m
< 200 ft
Symbols :   Thunderstorms  Fog  Heavy snow  Heavy precipitations  Wind > 20 kt
SIGMETs :     Misc.  Thunderstorms  Icing  Turbulence  Mountain Waves  Volcanic Ashes






- Airport Elevation : 218 ft
- IATA code : LBG


LFPB - Paris / Le Bourget

CURRENT METAR :
  • 180430Z AUTO 35003KT 0800 0700 R27/1700U R09/1000D R07/0900D FG VV/// 02/01 Q1038 TEMPO 0400 FG

EXPIRED METARs :
  • 180400Z AUTO VRB03KT 0900 0700 R27/1200D R09/1400D R07/1000D FG VV/// 02/02 Q1038 TEMPO 0400 FG
  • 180330Z AUTO 36004KT 330V030 2900 BR OVC002 02/02 Q1038 TEMPO 0400 FG VV///
  • 180300Z AUTO 02004KT 340V060 5000 BR OVC003 02/02 Q1038 TEMPO 0400 FG VV///
  • 180230Z AUTO 05005KT 010V070 4600 BR OVC003 02/02 Q1039 TEMPO 0400 FG VV///

TAF TAF LFPB
Valid from the 18 at 00:00 until the 19 at 00:00 UTC


172300Z 1800/1824 03005KT 4000 BR NSC
BECMG 1802/1804 2000 BR BKN006
TEMPO 1802/1808 0400 FG VV///
BECMG 1810/1812 9999 NSW BKN012
ATIS : +33 1 48 62 43 92



MET'MAP, your aeronautical weather chart ! - Copyright ORBIFLY December 2007 - Disclaimer

ORBIFLY MET'MAP TEAM :

Programming & Development : Alexandra Zaïnal
Concept & original design : Baudouin d'Aumeries
Assistance for programming : Marc-Olivier Méhu
Technical & hardware support : Manuel Goepfert

Contact : metmap@orbifly.com




SOURCES & CREDITS :

   NOAA